createdAt,value
2019-05-16T00:01:05.179Z,101443.42
2019-05-16T00:03:32.129Z,101440.45
2019-05-16T00:05:59.093Z,101430.64
2019-05-16T00:08:28.380Z,101431.31
2019-05-16T00:10:54.921Z,101428.97
2019-05-16T00:13:21.842Z,101430.38
2019-05-16T00:15:48.853Z,101426.45
2019-05-16T00:18:17.858Z,101428.56
2019-05-16T00:20:45.015Z,101426.80
2019-05-16T00:23:11.988Z,101425.91
2019-05-16T00:25:39.180Z,101426.10
2019-05-16T00:28:06.167Z,101419.36
2019-05-16T00:30:33.115Z,101422.17
2019-05-16T00:33:00.091Z,101423.73
2019-05-16T00:35:28.569Z,101410.69
2019-05-16T00:37:55.823Z,101411.75
2019-05-16T00:40:22.790Z,101410.44
2019-05-16T00:42:49.947Z,101405.16
2019-05-16T00:45:18.510Z,101402.17
2019-05-16T00:47:47.808Z,101398.80
2019-05-16T00:50:14.529Z,101396.83
2019-05-16T00:52:41.498Z,101396.92
2019-05-16T00:55:08.607Z,101390.61
2019-05-16T00:57:38.634Z,101392.73
2019-05-16T01:00:05.607Z,101390.52
2019-05-16T01:02:32.592Z,101388.00
2019-05-16T01:04:59.535Z,101384.61
2019-05-16T01:07:27.724Z,101380.23
2019-05-16T01:09:54.828Z,101371.62
2019-05-16T01:12:21.845Z,101368.77
2019-05-16T01:14:48.796Z,101370.12
2019-05-16T01:17:18.024Z,101368.59
2019-05-16T01:19:44.641Z,101369.14
2019-05-16T01:22:11.597Z,101367.14
2019-05-16T01:24:41.415Z,101372.02
2019-05-16T01:27:08.325Z,101368.08
2019-05-16T01:29:35.344Z,101365.87
2019-05-16T01:32:02.320Z,101369.52
2019-05-16T01:34:29.302Z,101362.30
2019-05-16T01:36:58.793Z,101365.60
2019-05-16T01:39:25.121Z,101358.38
2019-05-16T01:41:52.116Z,101354.00
2019-05-16T01:44:19.070Z,101359.72
2019-05-16T01:46:47.977Z,101355.06
2019-05-16T01:49:14.864Z,101349.27
2019-05-16T01:51:41.810Z,101351.87
2019-05-16T01:54:08.831Z,101347.14
2019-05-16T01:56:35.724Z,101340.39
2019-05-16T01:59:02.716Z,101338.74
2019-05-16T02:01:29.681Z,101337.28
2019-05-16T02:03:58.670Z,101343.41
2019-05-16T02:06:25.504Z,101344.27
2019-05-16T02:08:52.477Z,101337.53
2019-05-16T02:11:19.408Z,101335.85
2019-05-16T02:13:48.506Z,101337.45
2019-05-16T02:16:15.251Z,101335.85
2019-05-16T02:18:42.331Z,101335.03
2019-05-16T02:21:09.273Z,101336.38
2019-05-16T02:23:38.213Z,101335.70
2019-05-16T02:26:05.107Z,101327.93
2019-05-16T02:28:39.717Z,101332.34
2019-05-16T02:31:01.528Z,101334.95
2019-05-16T02:33:31.376Z,101329.89
2019-05-16T02:35:57.404Z,101331.64
2019-05-16T02:38:24.364Z,101329.89
2019-05-16T02:40:55.039Z,101326.78
2019-05-16T02:43:25.327Z,101328.36
2019-05-16T02:45:52.058Z,101326.49
2019-05-16T02:48:21.291Z,101320.48
2019-05-16T02:50:50.887Z,101319.14
2019-05-16T02:53:16.448Z,101320.20
2019-05-16T02:55:43.387Z,101312.34
2019-05-16T02:58:11.486Z,101313.47
2019-05-16T03:00:42.654Z,101319.22
2019-05-16T03:03:07.677Z,101319.95
2019-05-16T03:05:34.634Z,101317.91
2019-05-16T03:08:01.918Z,101311.89
2019-05-16T03:10:31.156Z,101314.84
2019-05-16T03:13:00.943Z,101309.62
2019-05-16T03:15:30.708Z,101312.83
2019-05-16T03:18:03.765Z,101311.08
2019-05-16T03:20:32.119Z,101301.52
2019-05-16T03:23:02.116Z,101294.53
2019-05-16T03:25:30.903Z,101296.25
2019-05-16T03:27:57.088Z,101289.38
2019-05-16T03:30:24.297Z,101292.78
2019-05-16T03:32:54.611Z,101291.14
2019-05-16T03:35:24.690Z,101286.66
2019-05-16T03:37:55.660Z,101293.30
2019-05-16T03:40:25.114Z,101290.69
2019-05-16T03:42:52.128Z,101280.28
2019-05-16T03:45:21.148Z,101279.34
2019-05-16T03:47:50.998Z,101285.50
2019-05-16T03:50:16.913Z,101281.92
2019-05-16T03:52:44.079Z,101283.30
2019-05-16T03:55:11.653Z,101278.16
2019-05-16T03:57:41.438Z,101278.27
2019-05-16T04:00:07.816Z,101276.84
2019-05-16T04:02:34.735Z,101274.48
2019-05-16T04:05:02.438Z,101280.53
2019-05-16T04:07:31.683Z,101271.58
2019-05-16T04:10:01.894Z,101267.06
2019-05-16T04:12:27.018Z,101272.14
2019-05-16T04:14:53.992Z,101274.30
2019-05-16T04:17:21.280Z,101278.59
2019-05-16T04:19:50.831Z,101243.14
2019-05-16T04:22:17.099Z,101270.20
2019-05-16T04:24:44.075Z,101270.27
2019-05-16T04:27:12.072Z,101269.98
2019-05-16T04:29:40.805Z,101269.86
2019-05-16T04:32:10.879Z,101270.39
2019-05-16T04:34:36.800Z,101270.69
2019-05-16T04:37:03.772Z,101271.09
2019-05-16T04:39:31.971Z,101269.41
2019-05-16T04:42:01.625Z,101265.16
2019-05-16T04:44:30.959Z,101265.58
2019-05-16T04:46:56.995Z,101272.03
2019-05-16T04:49:23.931Z,101269.01
2019-05-16T04:51:51.887Z,101270.64
2019-05-16T04:54:21.575Z,101267.25
2019-05-16T04:56:47.876Z,101272.89
2019-05-16T04:59:16.669Z,101264.79
2019-05-16T05:01:43.770Z,101266.58
2019-05-16T05:04:15.285Z,101273.48
2019-05-16T05:06:40.615Z,101264.45
2019-05-16T05:09:07.721Z,101266.98
2019-05-16T05:11:34.881Z,101263.48
2019-05-16T05:14:01.814Z,101265.16
2019-05-16T05:16:30.599Z,101265.91
2019-05-16T05:19:00.163Z,101271.84
2019-05-16T05:21:26.494Z,101266.27
2019-05-16T05:23:53.431Z,101264.71
2019-05-16T05:26:20.490Z,101272.81
2019-05-16T05:28:47.438Z,101262.96
2019-05-16T05:31:14.454Z,101266.72
2019-05-16T05:33:41.857Z,101261.17
2019-05-16T05:36:12.034Z,101260.93
2019-05-16T05:38:40.085Z,101262.20
2019-05-16T05:41:06.669Z,101256.23
2019-05-16T05:43:33.665Z,101258.31
2019-05-16T05:46:00.992Z,101264.72
2019-05-16T05:48:30.583Z,101259.80
2019-05-16T05:50:56.834Z,101237.34
2019-05-16T05:53:23.794Z,101261.16
2019-05-16T05:55:51.580Z,101265.08
2019-05-16T05:58:20.566Z,101255.02
2019-05-16T06:00:47.710Z,101262.05
2019-05-16T06:03:14.694Z,101258.80
2019-05-16T06:05:41.623Z,101256.95
2019-05-16T06:08:10.703Z,101254.83
2019-05-16T06:10:37.748Z,101252.77
2019-05-16T06:13:04.732Z,101256.50
2019-05-16T06:15:31.777Z,101254.84
2019-05-16T06:18:00.307Z,101256.63
2019-05-16T06:20:27.305Z,101257.53
2019-05-16T06:22:54.309Z,101248.25
2019-05-16T06:25:22.648Z,101244.28
2019-05-16T06:27:51.126Z,101247.63
2019-05-16T06:30:20.599Z,101239.83
2019-05-16T06:32:47.356Z,101236.17
2019-05-16T06:35:14.412Z,101241.64
2019-05-16T06:37:41.378Z,101231.02
2019-05-16T06:40:10.735Z,101235.91
2019-05-16T06:42:37.153Z,101235.11
2019-05-16T06:45:04.874Z,101240.05
2019-05-16T06:47:32.313Z,101232.61
2019-05-16T06:50:00.257Z,101228.72
2019-05-16T06:52:27.435Z,101232.17
2019-05-16T06:54:54.450Z,101226.24
2019-05-16T06:57:21.451Z,101227.55
2019-05-16T06:59:50.020Z,101226.95
2019-05-16T07:02:27.648Z,101227.61
2019-05-16T07:04:45.914Z,101228.36
2019-05-16T07:07:13.330Z,101216.63
2019-05-16T07:09:41.849Z,101221.83
2019-05-16T07:12:10.500Z,101224.44
2019-05-16T07:14:37.555Z,101226.30
2019-05-16T07:17:04.518Z,101224.98
2019-05-16T07:19:31.495Z,101215.94
2019-05-16T07:21:59.793Z,101216.14
2019-05-16T07:24:26.893Z,101223.13
2019-05-16T07:26:53.886Z,101212.02
2019-05-16T07:29:22.846Z,101220.25
2019-05-16T07:31:52.333Z,101207.88
2019-05-16T07:34:20.666Z,101211.95
2019-05-16T07:36:50.099Z,101203.81
2019-05-16T07:39:16.585Z,101201.99
2019-05-16T07:41:43.516Z,101194.50
2019-05-16T07:44:11.096Z,101200.69
2019-05-16T07:46:40.844Z,101190.41
2019-05-16T07:49:06.940Z,101196.46
2019-05-16T07:51:50.004Z,101188.16
2019-05-16T07:54:34.550Z,101189.20
2019-05-16T07:57:11.575Z,101189.42
2019-05-16T07:59:29.925Z,101182.14
2019-05-16T08:01:57.098Z,101184.26
2019-05-16T08:04:24.093Z,101182.36
2019-05-16T08:06:51.082Z,101175.81
2019-05-16T08:09:18.077Z,101180.37
2019-05-16T08:11:45.044Z,101173.56
2019-05-16T08:14:12.020Z,101173.77
2019-05-16T08:16:40.807Z,101171.01
2019-05-16T08:19:10.375Z,101163.29
2019-05-16T08:21:36.845Z,101160.75
2019-05-16T08:24:07.150Z,101160.80
2019-05-16T08:26:38.786Z,101161.21
2019-05-16T08:29:02.294Z,101154.72
2019-05-16T08:31:31.739Z,101152.55
2019-05-16T08:34:00.983Z,101142.45
2019-05-16T08:36:27.213Z,101143.13
2019-05-16T08:38:54.335Z,101138.39
2019-05-16T08:41:22.251Z,101138.24
2019-05-16T08:43:53.421Z,101129.80
2019-05-16T08:46:20.742Z,101133.59
2019-05-16T08:48:47.947Z,101133.73
2019-05-16T08:51:14.913Z,101132.61
2019-05-16T08:53:43.615Z,101130.52
2019-05-16T08:56:12.994Z,101128.37
2019-05-16T08:58:40.994Z,101130.61
2019-05-16T09:01:14.356Z,101125.21
2019-05-16T09:03:37.022Z,101129.23
2019-05-16T09:06:04.036Z,101127.51
2019-05-16T09:08:30.983Z,101117.42
2019-05-16T09:11:02.102Z,101127.32
2019-05-16T09:13:27.960Z,101116.62
2019-05-16T09:15:57.045Z,101122.38
2019-05-16T09:18:28.237Z,101118.52
2019-05-16T09:20:53.988Z,101117.03
2019-05-16T09:23:20.911Z,101123.65
2019-05-16T09:25:48.733Z,101118.80
2019-05-16T09:28:16.892Z,101116.44
2019-05-16T09:30:46.587Z,101114.69
2019-05-16T09:33:13.002Z,101108.98
2019-05-16T09:35:39.959Z,101108.44
2019-05-16T09:38:07.297Z,101102.16
2019-05-16T09:40:34.285Z,101100.09
2019-05-16T09:43:01.230Z,101091.78
2019-05-16T09:45:28.215Z,101096.61
2019-05-16T09:47:57.342Z,101089.45
2019-05-16T09:50:26.485Z,101096.05
2019-05-16T09:52:53.261Z,101093.70
2019-05-16T09:55:20.338Z,101095.20
2019-05-16T09:57:47.283Z,101088.22
2019-05-16T10:00:17.903Z,101092.84
2019-05-16T10:02:47.521Z,101085.67
2019-05-16T10:05:16.807Z,101086.99
2019-05-16T10:07:43.326Z,101082.09
2019-05-16T10:10:10.701Z,101081.31
2019-05-16T10:12:37.678Z,101072.63
2019-05-16T10:15:07.525Z,101070.03
2019-05-16T10:17:36.779Z,101078.34
2019-05-16T10:20:02.972Z,101066.22
2019-05-16T10:22:29.931Z,101072.74
2019-05-16T10:24:57.372Z,101063.64
2019-05-16T10:27:26.385Z,101072.77
2019-05-16T10:29:53.224Z,101064.47
2019-05-16T10:32:20.208Z,101066.90
2019-05-16T10:34:47.155Z,101060.70
2019-05-16T10:37:14.134Z,101057.11
2019-05-16T10:39:41.269Z,101060.19
2019-05-16T10:42:23.171Z,101056.25
2019-05-16T10:44:38.321Z,101050.84
2019-05-16T10:47:07.561Z,101038.97
2019-05-16T10:49:38.766Z,101046.03
2019-05-16T10:52:03.701Z,101041.91
2019-05-16T10:54:31.098Z,101039.70
2019-05-16T10:57:00.252Z,101039.20
2019-05-16T10:59:54.483Z,101029.08
2019-05-16T11:01:59.665Z,101020.30
2019-05-16T11:04:37.664Z,101014.12
2019-05-16T11:06:57.278Z,101005.88
2019-05-16T11:09:24.354Z,101003.70
2019-05-16T11:11:51.351Z,101003.79
2019-05-16T11:14:18.278Z,101007.73
2019-05-16T11:16:47.385Z,101006.07
2019-05-16T11:19:23.482Z,101000.41
2019-05-16T11:21:43.071Z,101003.77
2019-05-16T11:24:12.676Z,101003.00
2019-05-16T11:26:38.908Z,100995.77
2019-05-16T11:29:07.431Z,100998.34
2019-05-16T11:31:37.141Z,100998.31
2019-05-16T11:34:03.491Z,100991.05
2019-05-16T11:36:30.414Z,100983.22
2019-05-16T11:39:01.745Z,100983.95
2019-05-16T11:41:27.482Z,100983.02
2019-05-16T11:43:56.813Z,100982.20
2019-05-16T11:46:23.623Z,100979.11
2019-05-16T11:48:50.596Z,100980.78
2019-05-16T11:51:17.603Z,100973.94
2019-05-16T11:53:47.503Z,100971.30
2019-05-16T11:56:13.487Z,100938.97
2019-05-16T11:58:40.446Z,100954.19
2019-05-16T12:01:07.771Z,100969.92
2019-05-16T12:03:37.429Z,100968.55
2019-05-16T12:06:05.391Z,100970.01
2019-05-16T12:08:33.355Z,100965.92
2019-05-16T12:11:00.291Z,100961.89
2019-05-16T12:13:32.605Z,100963.17
2019-05-16T12:15:56.700Z,100961.89
2019-05-16T12:18:23.726Z,100969.61
2019-05-16T12:20:50.652Z,100959.29
2019-05-16T12:23:17.624Z,100969.22
2019-05-16T12:25:44.563Z,100963.78
2019-05-16T12:28:11.632Z,100966.63
2019-05-16T12:30:40.364Z,100961.09
2019-05-16T12:33:07.683Z,100953.25
2019-05-16T12:35:36.990Z,100955.03
2019-05-16T12:38:03.497Z,100950.91
2019-05-16T12:40:30.433Z,100954.00
2019-05-16T12:42:57.502Z,100948.97
2019-05-16T12:45:27.283Z,100934.70
2019-05-16T12:47:53.585Z,100940.12
2019-05-16T12:50:20.613Z,100928.80
2019-05-16T12:52:47.660Z,100929.30
2019-05-16T12:55:16.568Z,100935.95
2019-05-16T12:57:43.642Z,100927.56
2019-05-16T13:00:14.885Z,100919.59
2019-05-16T13:02:41.166Z,100918.84
2019-05-16T13:05:08.374Z,100910.22
2019-05-16T13:07:37.498Z,100904.70
2019-05-16T13:10:06.594Z,100902.16
2019-05-16T13:12:34.146Z,100901.86
2019-05-16T13:15:01.803Z,100899.80
2019-05-16T13:17:28.843Z,100893.15
2019-05-16T13:19:57.539Z,100890.50
2019-05-16T13:22:27.362Z,100880.25
2019-05-16T13:24:57.260Z,100877.33
2019-05-16T13:27:23.912Z,100872.14
2019-05-16T13:29:50.876Z,100878.17
2019-05-16T13:32:17.868Z,100880.97
2019-05-16T13:34:44.883Z,100877.83
2019-05-16T13:37:11.813Z,100875.06
2019-05-16T13:39:39.124Z,100874.37
2019-05-16T13:42:07.983Z,100872.83
2019-05-16T13:44:37.578Z,100872.61
2019-05-16T13:47:04.110Z,100866.11
2019-05-16T13:49:31.254Z,100865.33
2019-05-16T13:51:58.183Z,100841.22
2019-05-16T13:54:26.931Z,100860.33
2019-05-16T13:56:53.999Z,100855.22
2019-05-16T13:59:20.965Z,100850.28
2019-05-16T14:01:47.902Z,100847.52
2019-05-16T14:04:17.092Z,100842.20
2019-05-16T14:06:43.696Z,100838.90
2019-05-16T14:09:10.632Z,100841.38
2019-05-16T14:11:37.593Z,100833.02
2019-05-16T14:14:05.088Z,100835.18
2019-05-16T14:16:32.128Z,100836.41
2019-05-16T14:18:59.141Z,100825.48
2019-05-16T14:21:26.124Z,100814.55
2019-05-16T14:23:53.787Z,100815.30
2019-05-16T14:26:20.840Z,100805.52
2019-05-16T14:28:48.828Z,100800.13
2019-05-16T14:31:17.403Z,100795.50
2019-05-16T14:33:44.542Z,100791.46
2019-05-16T14:36:11.517Z,100794.53
2019-05-16T14:38:38.447Z,100794.75
2019-05-16T14:41:07.773Z,100794.52
2019-05-16T14:43:36.350Z,100796.66
2019-05-16T14:46:06.424Z,100799.82
2019-05-16T14:48:32.009Z,100790.16
2019-05-16T14:50:58.971Z,100783.88
2019-05-16T14:53:28.433Z,100780.09
2019-05-16T14:55:57.466Z,100770.94
2019-05-16T14:58:23.628Z,100772.95
2019-05-16T15:00:50.578Z,100768.24
2019-05-16T15:03:18.063Z,100767.34
2019-05-16T15:05:47.810Z,100764.48
2019-05-16T15:08:14.158Z,100755.08
2019-05-16T15:10:41.636Z,100753.61
2019-05-16T15:13:08.553Z,100752.00
2019-05-16T15:15:37.794Z,100743.14
2019-05-16T15:18:07.750Z,100738.84
2019-05-16T15:20:33.300Z,100736.78
2019-05-16T15:23:00.395Z,100738.14
2019-05-16T15:25:27.416Z,100733.56
2019-05-16T15:27:54.335Z,100730.51
2019-05-16T15:30:21.595Z,100729.63
2019-05-16T15:32:48.668Z,100733.98
2019-05-16T15:35:18.043Z,100724.42
2019-05-16T15:37:47.923Z,100720.90
2019-05-16T15:40:14.365Z,100725.80
2019-05-16T15:42:41.396Z,100722.09
2019-05-16T15:45:09.167Z,100721.09
2019-05-16T15:47:37.579Z,100709.88
2019-05-16T15:50:07.991Z,100706.17
2019-05-16T15:52:38.235Z,100706.39
2019-05-16T15:55:09.564Z,100701.02
2019-05-16T15:57:33.837Z,100692.58
2019-05-16T16:00:00.783Z,100687.50
2019-05-16T16:02:29.133Z,100688.17
2019-05-16T16:04:57.564Z,100685.80
2019-05-16T16:07:27.131Z,100678.05
2019-05-16T16:09:54.580Z,100674.97
2019-05-16T16:12:22.153Z,100672.77
2019-05-16T16:14:49.574Z,100669.48
2019-05-16T16:17:18.623Z,100661.70
2019-05-16T16:19:46.954Z,100663.48
2019-05-16T16:22:14.123Z,100656.38
2019-05-16T16:24:41.075Z,100654.16
2019-05-16T16:27:08.045Z,100656.54
2019-05-16T16:29:36.742Z,100644.84
2019-05-16T16:32:06.326Z,100641.44
2019-05-16T16:34:32.962Z,100647.20
2019-05-16T16:36:59.926Z,100642.12
2019-05-16T16:39:26.967Z,100636.44
2019-05-16T16:41:56.752Z,100638.30
2019-05-16T16:44:22.931Z,100636.26
2019-05-16T16:46:49.889Z,100637.49
2019-05-16T16:49:17.449Z,100636.45
2019-05-16T16:51:44.509Z,100632.39
2019-05-16T16:54:11.434Z,100637.34
2019-05-16T16:56:38.382Z,100633.97
2019-05-16T16:59:06.438Z,100631.64
2019-05-16T17:01:33.507Z,100633.77
2019-05-16T17:04:01.104Z,100629.27
2019-05-16T17:06:28.041Z,100627.47
2019-05-16T17:08:56.825Z,100627.66
2019-05-16T17:11:26.362Z,100628.17
2019-05-16T17:13:52.771Z,100621.69
2019-05-16T17:16:25.739Z,100619.16
2019-05-16T17:18:48.563Z,100621.62
2019-05-16T17:21:17.111Z,100615.64
2019-05-16T17:23:46.417Z,100614.16
2019-05-16T17:26:13.064Z,100618.77
2019-05-16T17:28:40.037Z,100614.70
2019-05-16T17:31:07.370Z,100615.72
2019-05-16T17:33:37.709Z,100605.45
2019-05-16T17:36:03.308Z,100599.23
2019-05-16T17:38:30.246Z,100596.59
2019-05-16T17:40:57.173Z,100598.03
2019-05-16T17:43:24.138Z,100598.40
2019-05-16T17:45:51.083Z,100594.98
2019-05-16T17:48:18.065Z,100597.81
2019-05-16T17:50:46.693Z,100597.81
2019-05-16T17:53:13.809Z,100594.31
2019-05-16T17:55:40.738Z,100593.14
2019-05-16T17:58:08.907Z,100593.45
2019-05-16T18:00:36.131Z,100587.12
2019-05-16T18:03:03.375Z,100592.22
2019-05-16T18:05:30.390Z,100588.34
2019-05-16T18:07:57.365Z,100585.09
2019-05-16T18:10:26.950Z,100583.22
2019-05-16T18:12:53.770Z,100587.70
2019-05-16T18:15:21.308Z,100576.77
2019-05-16T18:17:48.381Z,100585.06
2019-05-16T18:20:15.751Z,100586.48
2019-05-16T18:22:42.982Z,100583.93
2019-05-16T18:25:09.979Z,100585.57
2019-05-16T18:27:37.561Z,100573.45
2019-05-16T18:30:05.197Z,100580.18
2019-05-16T18:32:32.143Z,100576.89
2019-05-16T18:34:59.121Z,100578.19
2019-05-16T18:37:26.620Z,100578.03
2019-05-16T18:39:53.645Z,100573.84
2019-05-16T18:42:20.596Z,100578.05
2019-05-16T18:44:47.596Z,100575.27
2019-05-16T18:47:14.558Z,100574.95
2019-05-16T18:49:41.511Z,100572.33
2019-05-16T18:52:08.426Z,100567.83
2019-05-16T18:54:37.654Z,100563.27
2019-05-16T18:57:06.803Z,100558.44
2019-05-16T18:59:33.198Z,100557.28
2019-05-16T19:02:00.131Z,100556.91
2019-05-16T19:04:27.166Z,100555.36
2019-05-16T19:06:54.133Z,100558.75
2019-05-16T19:09:21.100Z,100560.83
2019-05-16T19:11:48.042Z,100552.80
2019-05-16T19:14:16.971Z,100551.73
2019-05-16T19:16:43.845Z,100553.69
2019-05-16T19:19:10.776Z,100546.27
2019-05-16T19:21:37.764Z,100546.19
2019-05-16T19:24:06.848Z,100542.88
2019-05-16T19:26:33.576Z,100541.84
2019-05-16T19:29:00.562Z,100542.66
2019-05-16T19:31:27.540Z,100546.75
2019-05-16T19:33:56.560Z,100544.22
2019-05-16T19:36:27.018Z,100545.23
2019-05-16T19:38:53.911Z,100543.98
2019-05-16T19:41:20.892Z,100539.81
2019-05-16T19:43:47.911Z,100541.36
2019-05-16T19:46:14.929Z,100544.19
2019-05-16T19:48:41.867Z,100542.42
2019-05-16T19:51:08.831Z,100543.98
2019-05-16T19:53:36.501Z,100544.80
2019-05-16T19:56:07.018Z,100544.69
2019-05-16T19:58:33.575Z,100541.36
2019-05-16T20:01:02.593Z,100539.83
2019-05-16T20:03:29.518Z,100541.92
2019-05-16T20:05:57.000Z,100545.66
2019-05-16T20:08:24.014Z,100542.53
2019-05-16T20:10:50.996Z,100538.27
2019-05-16T20:13:20.490Z,100542.21
2019-05-16T20:15:47.466Z,100538.11
2019-05-16T20:18:18.230Z,100532.20
2019-05-16T20:20:43.342Z,100533.84
2019-05-16T20:23:10.272Z,100526.58
2019-05-16T20:25:37.228Z,100525.04
2019-05-16T20:28:08.765Z,100526.13
2019-05-16T20:30:33.108Z,100532.05
2019-05-16T20:33:00.085Z,100529.44
2019-05-16T20:35:27.038Z,100531.52
2019-05-16T20:37:54.145Z,100531.30
2019-05-16T20:40:21.090Z,100521.63
2019-05-16T20:42:48.267Z,100517.62
2019-05-16T20:45:16.900Z,100512.28
2019-05-16T20:47:43.991Z,100514.15
2019-05-16T20:50:11.732Z,100512.69
2019-05-16T20:52:38.785Z,100514.58
2019-05-16T20:55:07.173Z,100516.05
2019-05-16T20:57:34.484Z,100506.07
2019-05-16T21:00:01.400Z,100508.77
2019-05-16T21:02:28.364Z,100513.27
2019-05-16T21:04:57.092Z,100520.15
2019-05-16T21:07:26.362Z,100514.98
2019-05-16T21:09:52.938Z,100509.23
2019-05-16T21:12:22.193Z,100512.69
2019-05-16T21:14:49.134Z,100519.44
2019-05-16T21:17:17.418Z,100519.22
2019-05-16T21:19:44.501Z,100512.61
2019-05-16T21:22:11.444Z,100518.95
2019-05-16T21:24:38.359Z,100509.44
2019-05-16T21:27:05.306Z,100510.23
2019-05-16T21:29:32.255Z,100500.31
2019-05-16T21:31:59.237Z,100512.45
2019-05-16T21:34:27.206Z,100507.36
2019-05-16T21:36:54.410Z,100505.62
2019-05-16T21:39:21.465Z,100510.77
2019-05-16T21:41:48.507Z,100501.62
2019-05-16T21:44:17.057Z,100506.98
2019-05-16T21:46:44.224Z,100510.77
2019-05-16T21:49:11.164Z,100500.69
2019-05-16T21:51:38.094Z,100504.29
2019-05-16T21:54:07.010Z,100504.16
2019-05-16T21:56:33.883Z,100500.98
2019-05-16T21:59:01.080Z,100494.91
2019-05-16T22:01:28.097Z,100497.44
2019-05-16T22:03:56.715Z,100490.61
2019-05-16T22:06:23.775Z,100495.22
2019-05-16T22:08:50.727Z,100497.16
2019-05-16T22:11:17.661Z,100492.61
2019-05-16T22:13:46.447Z,100489.75
2019-05-16T22:16:13.560Z,100491.00
2019-05-16T22:18:40.523Z,100485.83
2019-05-16T22:21:07.869Z,100490.36
2019-05-16T22:23:37.233Z,100485.75
2019-05-16T22:26:03.654Z,100482.06
2019-05-16T22:28:30.618Z,100477.56
2019-05-16T22:30:58.539Z,100477.09
2019-05-16T22:33:26.761Z,100468.86
2019-05-16T22:35:53.758Z,100470.47
2019-05-16T22:38:20.795Z,100463.96
2019-05-16T22:40:47.733Z,100459.50
2019-05-16T22:43:17.215Z,100467.17
2019-05-16T22:45:43.571Z,100456.66
2019-05-16T22:48:10.520Z,100459.94
2019-05-16T22:50:37.448Z,100455.09
2019-05-16T22:53:06.439Z,100454.58
2019-05-16T22:55:33.308Z,100450.81
2019-05-16T22:58:00.259Z,100445.88
2019-05-16T23:00:29.466Z,100446.26
2019-05-16T23:02:56.729Z,100451.48
2019-05-16T23:05:23.645Z,100451.94
2019-05-16T23:08:02.099Z,100449.88
2019-05-16T23:10:19.440Z,100450.81
2019-05-16T23:12:46.382Z,100446.63
2019-05-16T23:15:13.936Z,100440.16
2019-05-16T23:17:40.853Z,100438.42
2019-05-16T23:20:08.106Z,100440.87
2019-05-16T23:22:36.709Z,100438.45
2019-05-16T23:25:06.372Z,100443.11
2019-05-16T23:27:32.720Z,100437.73
2019-05-16T23:29:59.665Z,100434.36
2019-05-16T23:32:27.113Z,100435.06
2019-05-16T23:34:54.147Z,100426.97
2019-05-16T23:37:21.077Z,100434.66
2019-05-16T23:39:48.030Z,100436.74
2019-05-16T23:42:14.973Z,100438.42
